createdAt,value
2019-01-23T00:00:21.473Z,36.80
2019-01-23T00:02:49.743Z,36.80
2019-01-23T00:05:18.026Z,42.47
2019-01-23T00:07:46.342Z,36.70
2019-01-23T00:10:14.610Z,34.53
2019-01-23T00:12:42.926Z,33.47
2019-01-23T00:15:11.282Z,37.47
2019-01-23T00:17:39.579Z,32.80
2019-01-23T00:20:08.288Z,32.30
2019-01-23T00:22:36.578Z,33.80
2019-01-23T00:25:07.278Z,31.90
2019-01-23T00:27:35.599Z,35.80
2019-01-23T00:30:06.641Z,30.50
2019-01-23T00:32:35.027Z,29.17
2019-01-23T00:35:03.362Z,32.87
2019-01-23T00:37:31.724Z,30.40
2019-01-23T00:40:00.017Z,32.83
2019-01-23T00:42:28.301Z,31.40
2019-01-23T00:44:56.586Z,30.57
2019-01-23T00:47:24.851Z,28.43
2019-01-23T00:49:53.160Z,29.73
2019-01-23T00:52:21.431Z,31.77
2019-01-23T00:54:49.732Z,31.67
2019-01-23T00:57:17.993Z,28.93
2019-01-23T00:59:46.271Z,34.13
2019-01-23T01:02:14.567Z,32.77
2019-01-23T01:04:42.921Z,35.07
2019-01-23T01:07:11.191Z,36.13
2019-01-23T01:09:39.515Z,33.53
2019-01-23T01:12:07.963Z,32.57
2019-01-23T01:14:36.267Z,32.83
2019-01-23T01:17:04.620Z,36.17
2019-01-23T01:19:32.900Z,29.13
2019-01-23T01:22:01.185Z,32.37
2019-01-23T01:24:29.467Z,32.47
2019-01-23T01:26:57.850Z,29.47
2019-01-23T01:29:26.106Z,33.30
2019-01-23T01:31:54.403Z,31.23
2019-01-23T01:34:22.666Z,28.23
2019-01-23T01:36:51.008Z,31.10
2019-01-23T01:39:19.310Z,29.30
2019-01-23T01:41:47.606Z,32.30
2019-01-23T01:44:15.865Z,31.13
2019-01-23T01:46:44.148Z,29.83
2019-01-23T01:49:12.447Z,31.57
2019-01-23T01:51:40.731Z,35.10
2019-01-23T01:54:09.070Z,29.57
2019-01-23T01:56:37.360Z,33.60
2019-01-23T01:59:05.606Z,28.63
2019-01-23T02:01:33.925Z,32.90
2019-01-23T02:04:02.295Z,33.20
2019-01-23T02:06:30.650Z,32.73
2019-01-23T02:08:58.911Z,29.20
2019-01-23T02:11:27.172Z,35.97
2019-01-23T02:13:55.456Z,33.77
2019-01-23T02:16:23.717Z,33.27
2019-01-23T02:18:52.137Z,35.27
2019-01-23T02:21:20.471Z,31.20
2019-01-23T02:23:48.761Z,30.20
2019-01-23T02:26:17.025Z,33.30
2019-01-23T02:28:45.323Z,32.17
2019-01-23T02:31:13.595Z,36.00
2019-01-23T02:33:41.876Z,34.87
2019-01-23T02:36:10.287Z,33.53
2019-01-23T02:38:38.604Z,33.20
2019-01-23T02:41:06.987Z,34.10
2019-01-23T02:43:35.286Z,34.00
2019-01-23T02:46:03.626Z,35.33
2019-01-23T02:48:31.930Z,35.03
2019-01-23T02:51:00.216Z,34.37
2019-01-23T02:53:28.560Z,33.00
2019-01-23T02:55:56.845Z,33.63
2019-01-23T02:58:25.107Z,36.10
2019-01-23T03:00:53.425Z,34.50
2019-01-23T03:03:21.745Z,34.60
2019-01-23T03:05:50.062Z,37.47
2019-01-23T03:08:18.331Z,36.27
2019-01-23T03:10:46.616Z,35.97
2019-01-23T03:13:14.900Z,34.43
2019-01-23T03:15:43.183Z,37.43
2019-01-23T03:18:11.514Z,38.40
2019-01-23T03:20:39.798Z,38.80
2019-01-23T03:23:08.083Z,36.90
2019-01-23T03:25:36.400Z,40.83
2019-01-23T03:28:04.656Z,36.17
2019-01-23T03:30:32.921Z,39.77
2019-01-23T03:33:01.269Z,39.90
2019-01-23T03:35:29.550Z,39.80
2019-01-23T03:37:57.896Z,36.80
2019-01-23T03:40:26.202Z,38.83
2019-01-23T03:42:54.496Z,39.67
2019-01-23T03:45:22.856Z,38.67
2019-01-23T03:47:51.112Z,45.63
2019-01-23T03:50:19.499Z,40.87
2019-01-23T03:52:47.977Z,37.77
2019-01-23T03:55:17.385Z,37.47
2019-01-23T03:57:45.703Z,41.00
2019-01-23T04:00:15.980Z,39.17
2019-01-23T04:02:44.357Z,35.83
2019-01-23T04:05:12.677Z,38.03
2019-01-23T04:07:40.990Z,39.43
2019-01-23T04:10:13.786Z,41.60
2019-01-23T04:12:42.075Z,44.47
2019-01-23T04:15:12.291Z,39.27
2019-01-23T04:17:40.571Z,37.43
2019-01-23T04:20:11.673Z,42.73
2019-01-23T04:22:39.961Z,41.33
2019-01-23T04:25:09.342Z,43.10
2019-01-23T04:27:37.798Z,41.07
2019-01-23T04:30:11.946Z,48.20
2019-01-23T04:32:40.228Z,43.73
2019-01-23T04:35:08.517Z,39.17
2019-01-23T04:37:36.811Z,36.17
2019-01-23T04:40:10.187Z,39.00
2019-01-23T04:42:38.486Z,38.07
2019-01-23T04:45:09.698Z,43.70
2019-01-23T04:47:38.065Z,43.07
2019-01-23T04:50:08.987Z,41.07
2019-01-23T04:52:38.947Z,44.83
2019-01-23T04:55:07.336Z,47.60
2019-01-23T04:57:35.602Z,45.70
2019-01-23T05:00:07.700Z,46.53
2019-01-23T05:02:35.977Z,44.10
2019-01-23T05:05:06.404Z,44.70
2019-01-23T05:07:34.668Z,44.37
2019-01-23T05:10:03.442Z,44.43
2019-01-23T05:12:31.778Z,44.70
2019-01-23T05:15:00.323Z,46.17
2019-01-23T05:17:28.601Z,48.20
2019-01-23T05:19:56.893Z,46.27
2019-01-23T05:22:25.186Z,41.43
2019-01-23T05:24:53.537Z,45.30
2019-01-23T05:27:21.814Z,48.57
2019-01-23T05:29:54.844Z,51.17
2019-01-23T05:32:20.103Z,45.33
2019-01-23T05:34:48.487Z,41.13
2019-01-23T05:37:16.797Z,47.53
2019-01-23T05:39:45.109Z,48.97
2019-01-23T05:42:13.438Z,50.83
2019-01-23T05:44:41.712Z,42.37
2019-01-23T05:47:09.997Z,46.73
2019-01-23T05:49:38.347Z,45.50
2019-01-23T05:52:06.677Z,46.63
2019-01-23T05:54:34.946Z,47.30
2019-01-23T05:57:03.240Z,48.23
2019-01-23T05:59:31.525Z,49.23
2019-01-23T06:01:59.828Z,48.00
2019-01-23T06:04:28.091Z,52.17
2019-01-23T06:06:56.476Z,50.67
2019-01-23T06:09:24.767Z,48.50
2019-01-23T06:11:53.046Z,49.63
2019-01-23T06:14:21.310Z,52.27
2019-01-23T06:16:49.603Z,53.03
2019-01-23T06:19:17.850Z,55.00
2019-01-23T06:21:46.151Z,53.50
2019-01-23T06:24:14.442Z,51.33
2019-01-23T06:26:42.691Z,59.73
2019-01-23T06:29:10.972Z,55.43
2019-01-23T06:31:39.258Z,55.17
2019-01-23T06:34:07.577Z,61.47
2019-01-23T06:36:35.820Z,54.67
2019-01-23T06:39:06.695Z,47.37
2019-01-23T06:41:34.963Z,50.40
2019-01-23T06:44:03.261Z,51.10
2019-01-23T06:46:31.562Z,49.23
2019-01-23T06:48:59.909Z,49.37
2019-01-23T06:51:28.190Z,50.70
2019-01-23T06:53:56.496Z,49.13
2019-01-23T06:56:24.743Z,48.33
2019-01-23T06:58:53.137Z,51.20
2019-01-23T07:01:21.406Z,46.93
2019-01-23T07:03:49.718Z,49.60
2019-01-23T07:06:17.987Z,45.33
2019-01-23T07:08:46.292Z,51.60
2019-01-23T07:11:14.608Z,46.53
2019-01-23T07:13:42.912Z,51.07
2019-01-23T07:16:11.181Z,49.30
2019-01-23T07:18:39.455Z,46.77
2019-01-23T07:21:07.753Z,41.73
2019-01-23T07:23:36.121Z,38.70
2019-01-23T07:26:04.406Z,45.57
2019-01-23T07:28:32.761Z,50.37
2019-01-23T07:31:01.052Z,43.63
2019-01-23T07:33:29.326Z,48.47
2019-01-23T07:35:57.682Z,50.73
2019-01-23T07:38:25.991Z,46.40
2019-01-23T07:40:54.283Z,46.67
2019-01-23T07:43:22.570Z,48.37
2019-01-23T07:45:50.863Z,48.87
2019-01-23T07:48:19.141Z,41.87
2019-01-23T07:50:47.437Z,46.00
2019-01-23T07:53:15.732Z,40.53
2019-01-23T07:55:44.037Z,45.37
2019-01-23T07:58:12.301Z,50.63
2019-01-23T08:00:40.603Z,47.23
2019-01-23T08:03:08.865Z,46.73
2019-01-23T08:05:37.182Z,44.27
2019-01-23T08:08:05.468Z,43.30
2019-01-23T08:10:33.737Z,45.43
2019-01-23T08:13:02.063Z,42.03
2019-01-23T08:15:32.243Z,43.67
2019-01-23T08:18:00.547Z,45.23
2019-01-23T08:20:29.656Z,46.03
2019-01-23T08:22:58.474Z,47.80
2019-01-23T08:25:26.756Z,44.53
2019-01-23T08:27:55.055Z,45.10
2019-01-23T08:30:24.075Z,38.43
2019-01-23T08:32:52.371Z,49.07
2019-01-23T08:35:21.074Z,45.53
2019-01-23T08:37:49.415Z,50.43
2019-01-23T08:40:18.423Z,45.67
2019-01-23T08:42:46.781Z,55.03
2019-01-23T08:45:15.321Z,48.40
2019-01-23T08:47:43.607Z,52.67
2019-01-23T08:50:18.070Z,42.20
2019-01-23T08:52:46.352Z,48.23
2019-01-23T08:55:14.642Z,54.37
2019-01-23T08:57:42.936Z,52.40
2019-01-23T09:00:16.262Z,56.70
2019-01-23T09:02:44.586Z,46.57
2019-01-23T09:05:13.130Z,48.70
2019-01-23T09:07:41.432Z,48.83
2019-01-23T09:10:23.776Z,48.03
2019-01-23T09:12:52.152Z,46.57
2019-01-23T09:15:20.423Z,50.20
2019-01-23T09:17:48.832Z,51.67
2019-01-23T09:20:19.064Z,55.30
2019-01-23T09:22:47.413Z,58.57
2019-01-23T09:25:18.295Z,49.67
2019-01-23T09:27:46.646Z,46.70
2019-01-23T09:30:33.073Z,46.40
2019-01-23T09:33:27.054Z,52.20
2019-01-23T09:36:16.573Z,50.80
2019-01-23T09:39:07.342Z,50.63
2019-01-23T09:42:09.990Z,58.00
2019-01-23T09:44:57.502Z,48.23
2019-01-23T09:47:40.955Z,48.20
2019-01-23T09:50:27.586Z,45.17
2019-01-23T09:53:13.777Z,45.53
2019-01-23T09:55:42.142Z,46.47
2019-01-23T09:58:10.486Z,48.10
2019-01-23T10:00:38.857Z,44.57
2019-01-23T10:03:07.135Z,52.17
2019-01-23T10:05:35.444Z,48.73
2019-01-23T10:08:03.942Z,44.80
2019-01-23T10:10:32.239Z,44.27
2019-01-23T10:13:00.516Z,42.07
2019-01-23T10:15:32.070Z,44.73
2019-01-23T10:18:00.347Z,42.20
2019-01-23T10:20:28.646Z,45.53
2019-01-23T10:22:56.933Z,46.87
2019-01-23T10:25:25.226Z,45.03
2019-01-23T10:27:53.515Z,44.90
2019-01-23T10:30:21.786Z,44.00
2019-01-23T10:32:50.133Z,43.47
2019-01-23T10:35:18.802Z,41.77
2019-01-23T10:37:47.145Z,39.10
2019-01-23T10:40:17.033Z,38.10
2019-01-23T10:42:45.327Z,39.87
2019-01-23T10:45:14.654Z,39.00
2019-01-23T10:47:43.875Z,39.33
2019-01-23T10:50:16.910Z,38.93
2019-01-23T10:52:45.216Z,39.37
2019-01-23T10:55:13.470Z,39.13
2019-01-23T10:57:41.791Z,34.60
2019-01-23T11:00:13.196Z,32.00
2019-01-23T11:02:41.506Z,34.97
2019-01-23T11:05:12.383Z,33.37
2019-01-23T11:07:40.692Z,36.40
2019-01-23T11:10:12.211Z,35.07
2019-01-23T11:12:40.610Z,32.60
2019-01-23T11:15:08.951Z,35.10
2019-01-23T11:17:37.253Z,33.17
2019-01-23T11:20:09.070Z,36.57
2019-01-23T11:22:37.386Z,33.73
2019-01-23T11:25:08.450Z,33.60
2019-01-23T11:27:36.747Z,31.77
2019-01-23T11:30:08.273Z,32.97
2019-01-23T11:32:36.572Z,37.33
2019-01-23T11:35:07.242Z,39.73
2019-01-23T11:37:35.523Z,31.50
2019-01-23T11:40:07.085Z,36.13
2019-01-23T11:42:35.440Z,46.43
2019-01-23T11:45:06.044Z,35.07
2019-01-23T11:47:34.301Z,37.73
2019-01-23T11:50:02.590Z,49.17
2019-01-23T11:52:30.921Z,36.27
2019-01-23T11:54:59.217Z,40.07
2019-01-23T11:57:27.475Z,32.93
2019-01-23T11:59:55.760Z,35.10
2019-01-23T12:02:30.598Z,39.13
2019-01-23T12:04:54.150Z,39.23
2019-01-23T12:07:22.436Z,29.63
2019-01-23T12:09:50.735Z,37.03
2019-01-23T12:12:19.028Z,34.97
2019-01-23T12:14:47.346Z,51.40
2019-01-23T12:17:15.740Z,36.27
2019-01-23T12:19:44.031Z,35.90
2019-01-23T12:22:12.346Z,32.50
2019-01-23T12:24:41.180Z,44.53
2019-01-23T12:27:09.597Z,36.87
2019-01-23T12:29:37.897Z,31.93
2019-01-23T12:32:06.162Z,29.40
2019-01-23T12:34:34.432Z,38.17
2019-01-23T12:37:02.744Z,36.33
2019-01-23T12:39:31.021Z,31.43
2019-01-23T12:41:59.310Z,33.13
2019-01-23T12:44:27.560Z,29.57
2019-01-23T12:46:55.927Z,37.10
2019-01-23T12:49:24.202Z,38.43
2019-01-23T12:51:52.512Z,40.67
2019-01-23T12:54:20.775Z,36.27
2019-01-23T12:56:49.026Z,32.23
2019-01-23T12:59:17.311Z,32.33
2019-01-23T13:01:46.955Z,33.40
2019-01-23T13:04:15.453Z,36.10
2019-01-23T13:06:43.821Z,38.57
2019-01-23T13:09:12.186Z,34.27
2019-01-23T13:11:40.515Z,32.57
2019-01-23T13:14:08.852Z,33.10
2019-01-23T13:16:37.127Z,42.33
2019-01-23T13:19:05.407Z,41.17
2019-01-23T13:21:33.675Z,45.53
2019-01-23T13:24:01.979Z,37.10
2019-01-23T13:26:31.082Z,44.13
2019-01-23T13:28:59.355Z,37.03
2019-01-23T13:31:27.617Z,38.73
2019-01-23T13:33:55.906Z,36.50
2019-01-23T13:36:24.162Z,34.43
2019-01-23T13:38:52.459Z,34.73
2019-01-23T13:41:20.795Z,40.17
2019-01-23T13:43:49.301Z,35.27
2019-01-23T13:46:17.665Z,42.27
2019-01-23T13:48:46.121Z,35.53
2019-01-23T13:51:14.542Z,42.37
2019-01-23T13:53:42.922Z,35.87
2019-01-23T13:56:11.350Z,37.77
2019-01-23T13:58:41.852Z,35.83
2019-01-23T14:01:09.876Z,40.03
2019-01-23T14:03:38.228Z,34.13
2019-01-23T14:06:06.596Z,35.93
2019-01-23T14:08:34.952Z,32.10
2019-01-23T14:11:03.327Z,42.67
2019-01-23T14:13:31.648Z,40.97
2019-01-23T14:15:59.956Z,37.17
2019-01-23T14:18:28.345Z,43.00
2019-01-23T14:20:56.721Z,49.63
2019-01-23T14:23:24.997Z,39.23
2019-01-23T14:25:53.319Z,38.30
2019-01-23T14:28:21.666Z,41.80
2019-01-23T14:30:49.965Z,41.33
2019-01-23T14:33:18.259Z,38.63
2019-01-23T14:35:46.572Z,39.40
2019-01-23T14:38:14.943Z,43.30
2019-01-23T14:40:43.280Z,36.87
2019-01-23T14:43:11.582Z,35.70
2019-01-23T14:45:39.881Z,35.40
2019-01-23T14:48:08.216Z,38.83
2019-01-23T14:50:36.493Z,39.83
2019-01-23T14:53:04.846Z,44.50
2019-01-23T14:55:33.123Z,36.63
2019-01-23T14:58:05.979Z,36.00
2019-01-23T15:00:32.883Z,37.63
2019-01-23T15:03:01.201Z,38.60
2019-01-23T15:05:29.541Z,44.87
2019-01-23T15:07:57.830Z,36.80
2019-01-23T15:10:29.398Z,41.37
2019-01-23T15:12:57.747Z,36.30
2019-01-23T15:15:26.017Z,39.30
2019-01-23T15:17:54.952Z,36.00
2019-01-23T15:20:37.209Z,35.93
2019-01-23T15:23:05.565Z,47.03
2019-01-23T15:25:33.887Z,54.70
2019-01-23T15:28:02.189Z,43.50
2019-01-23T15:30:30.502Z,42.27
2019-01-23T15:32:58.875Z,48.53
2019-01-23T15:35:27.183Z,46.67
2019-01-23T15:37:55.516Z,47.43
2019-01-23T15:40:28.905Z,44.10
2019-01-23T15:42:57.282Z,42.13
2019-01-23T15:45:25.667Z,38.50
2019-01-23T15:47:53.976Z,41.30
2019-01-23T15:50:24.004Z,42.00
2019-01-23T15:52:52.272Z,42.57
2019-01-23T15:55:22.036Z,43.27
2019-01-23T15:57:50.310Z,34.80
2019-01-23T16:00:27.330Z,51.93
2019-01-23T16:02:55.687Z,57.23
2019-01-23T16:05:24.086Z,42.87
2019-01-23T16:07:52.426Z,43.27
2019-01-23T16:10:25.852Z,39.47
2019-01-23T16:12:54.367Z,47.63
2019-01-23T16:15:26.061Z,41.43
2019-01-23T16:17:54.358Z,45.13
2019-01-23T16:20:22.729Z,47.47
2019-01-23T16:22:51.151Z,50.70
2019-01-23T16:25:19.517Z,44.10
2019-01-23T16:27:47.780Z,41.43
2019-01-23T16:30:24.645Z,46.30
2019-01-23T16:32:52.925Z,44.80
2019-01-23T16:35:21.230Z,45.40
2019-01-23T16:37:49.517Z,40.17
2019-01-23T16:40:17.823Z,41.97
2019-01-23T16:42:46.188Z,47.37
2019-01-23T16:45:19.567Z,47.67
2019-01-23T16:47:47.997Z,43.77
2019-01-23T16:50:18.507Z,43.73
2019-01-23T16:52:46.823Z,40.83
2019-01-23T16:55:15.136Z,41.67
2019-01-23T16:57:43.627Z,44.00
2019-01-23T17:00:17.171Z,46.27
2019-01-23T17:02:45.480Z,44.80
2019-01-23T17:05:19.787Z,45.43
2019-01-23T17:07:48.170Z,40.87
2019-01-23T17:10:19.036Z,45.03
2019-01-23T17:12:47.341Z,46.10
2019-01-23T17:15:15.682Z,49.53
2019-01-23T17:17:44.046Z,47.37
2019-01-23T17:20:24.364Z,46.50
2019-01-23T17:22:52.729Z,46.27
2019-01-23T17:25:21.020Z,45.50
2019-01-23T17:27:49.329Z,47.90
2019-01-23T17:30:18.535Z,46.43
2019-01-23T17:32:46.829Z,44.03
2019-01-23T17:35:19.962Z,47.37
2019-01-23T17:37:48.258Z,51.73
2019-01-23T17:40:21.195Z,48.37
2019-01-23T17:42:49.557Z,46.30
2019-01-23T17:45:23.457Z,45.73
2019-01-23T17:47:51.853Z,50.23
2019-01-23T17:50:21.997Z,55.67
2019-01-23T17:52:50.537Z,48.73
2019-01-23T17:55:23.961Z,52.80
2019-01-23T17:57:52.363Z,47.43
2019-01-23T18:00:25.194Z,52.30
2019-01-23T18:02:53.706Z,52.70
2019-01-23T18:05:22.095Z,48.00
2019-01-23T18:07:50.425Z,49.63
2019-01-23T18:10:18.743Z,50.70
2019-01-23T18:12:47.019Z,51.27
2019-01-23T18:15:18.082Z,49.13
2019-01-23T18:17:46.515Z,52.43
2019-01-23T18:20:17.632Z,54.43
2019-01-23T18:22:45.908Z,51.70
2019-01-23T18:25:15.271Z,51.27
2019-01-23T18:27:43.616Z,54.83
2019-01-23T18:30:20.550Z,58.17
2019-01-23T18:32:49.554Z,54.57
2019-01-23T18:35:30.003Z,55.50
2019-01-23T18:38:25.257Z,53.53
2019-01-23T18:40:59.812Z,45.77
2019-01-23T18:43:50.687Z,56.00
2019-01-23T18:46:22.298Z,50.57
2019-01-23T18:49:20.777Z,50.93
2019-01-23T18:51:52.501Z,57.37
2019-01-23T18:54:20.842Z,54.03
2019-01-23T18:56:49.166Z,58.37
2019-01-23T18:59:17.512Z,52.30
2019-01-23T19:01:45.831Z,52.93
2019-01-23T19:04:14.166Z,54.67
2019-01-23T19:06:42.456Z,55.13
2019-01-23T19:09:10.751Z,56.50
2019-01-23T19:11:39.042Z,58.37
2019-01-23T19:14:08.610Z,60.43
2019-01-23T19:16:36.992Z,54.80
2019-01-23T19:19:05.308Z,52.17
2019-01-23T19:21:33.608Z,50.77
2019-01-23T19:24:01.958Z,52.47
2019-01-23T19:26:30.346Z,50.03
2019-01-23T19:28:58.693Z,61.50
2019-01-23T19:31:27.073Z,55.90
2019-01-23T19:33:55.521Z,56.40
2019-01-23T19:36:23.804Z,56.00
2019-01-23T19:38:52.137Z,53.23
2019-01-23T19:41:20.867Z,55.53
2019-01-23T19:43:49.252Z,50.77
2019-01-23T19:46:17.551Z,66.97
2019-01-23T19:48:45.967Z,76.50
2019-01-23T19:51:14.348Z,62.83
2019-01-23T19:53:43.541Z,53.63
2019-01-23T19:56:11.838Z,45.80
2019-01-23T19:58:40.142Z,52.33
2019-01-23T20:01:08.424Z,50.80
2019-01-23T20:03:36.724Z,48.90
2019-01-23T20:06:05.087Z,44.20
2019-01-23T20:08:33.427Z,49.30
2019-01-23T20:11:01.859Z,74.50
2019-01-23T20:13:30.198Z,78.43
2019-01-23T20:15:58.527Z,72.27
2019-01-23T20:18:26.883Z,71.80
2019-01-23T20:20:55.336Z,50.50
2019-01-23T20:23:23.703Z,51.73
2019-01-23T20:25:51.990Z,51.63
2019-01-23T20:28:20.265Z,45.07
2019-01-23T20:30:48.566Z,65.80
2019-01-23T20:33:16.835Z,57.40
2019-01-23T20:35:45.147Z,58.27
2019-01-23T20:38:13.442Z,63.33
2019-01-23T20:40:41.758Z,63.33
2019-01-23T20:43:10.037Z,60.07
2019-01-23T20:45:38.372Z,54.33
2019-01-23T20:48:06.903Z,54.20
2019-01-23T20:50:35.257Z,47.77
2019-01-23T20:53:03.606Z,50.23
2019-01-23T20:55:31.927Z,51.53
2019-01-23T20:58:00.212Z,50.70
2019-01-23T21:00:30.590Z,55.67
2019-01-23T21:02:58.992Z,48.67
2019-01-23T21:05:27.301Z,53.93
2019-01-23T21:07:55.581Z,52.00
2019-01-23T21:10:26.020Z,58.90
2019-01-23T21:12:54.313Z,51.00
2019-01-23T21:15:25.296Z,52.73
2019-01-23T21:17:53.622Z,54.10
2019-01-23T21:20:22.035Z,60.87
2019-01-23T21:22:50.487Z,49.77
2019-01-23T21:25:18.798Z,52.70
2019-01-23T21:27:47.091Z,56.40
2019-01-23T21:30:21.526Z,53.00
2019-01-23T21:32:49.885Z,55.47
2019-01-23T21:35:18.186Z,49.17
2019-01-23T21:37:46.490Z,54.77
2019-01-23T21:40:23.340Z,51.60
2019-01-23T21:42:51.632Z,51.93
2019-01-23T21:45:19.941Z,48.70
2019-01-23T21:47:49.299Z,54.13
2019-01-23T21:50:23.445Z,51.70
2019-01-23T21:52:51.823Z,51.97
2019-01-23T21:55:21.842Z,49.53
2019-01-23T21:57:50.344Z,46.93
2019-01-23T22:00:30.390Z,54.30
2019-01-23T22:03:00.683Z,47.77
2019-01-23T22:05:28.997Z,54.57
2019-01-23T22:07:57.356Z,56.87
2019-01-23T22:10:25.697Z,52.27
2019-01-23T22:12:54.007Z,52.10
2019-01-23T22:15:25.362Z,50.50
2019-01-23T22:17:53.646Z,52.73
2019-01-23T22:20:22.223Z,50.93
2019-01-23T22:22:50.512Z,52.37
2019-01-23T22:25:20.766Z,52.03
2019-01-23T22:27:49.040Z,51.20
2019-01-23T22:30:22.810Z,52.03
2019-01-23T22:32:51.101Z,48.43
2019-01-23T22:35:19.455Z,50.53
2019-01-23T22:37:47.757Z,50.13
2019-01-23T22:40:17.899Z,50.80
2019-01-23T22:42:46.227Z,48.37
2019-01-23T22:45:19.137Z,54.27
2019-01-23T22:47:47.507Z,50.80
2019-01-23T22:50:18.306Z,53.17
2019-01-23T22:52:46.652Z,54.23
2019-01-23T22:55:14.986Z,54.97
2019-01-23T22:57:43.358Z,51.63
2019-01-23T23:00:23.707Z,54.10
2019-01-23T23:02:52.058Z,54.23
2019-01-23T23:05:20.350Z,58.13
2019-01-23T23:07:48.617Z,66.53
2019-01-23T23:10:17.445Z,62.13
2019-01-23T23:12:45.772Z,55.63
2019-01-23T23:15:14.053Z,51.13
2019-01-23T23:17:42.351Z,52.43
2019-01-23T23:20:12.331Z,49.93
2019-01-23T23:22:40.629Z,52.13
2019-01-23T23:25:09.335Z,59.90
2019-01-23T23:27:39.503Z,53.70
2019-01-23T23:30:16.472Z,52.50
2019-01-23T23:32:44.786Z,60.93
2019-01-23T23:35:13.057Z,45.83
2019-01-23T23:37:41.381Z,55.67
2019-01-23T23:40:12.212Z,57.60
2019-01-23T23:42:40.531Z,51.97
2019-01-23T23:45:14.846Z,47.00
2019-01-23T23:47:43.170Z,49.50
2019-01-23T23:50:12.978Z,52.63
2019-01-23T23:52:41.285Z,52.73
2019-01-23T23:55:13.573Z,44.00
2019-01-23T23:57:41.883Z,48.07
